Airfield :







YOU CAN JOIN US ON...

 
LOGIN :

Register | Disclaimer

   EN    FR    IT 

 









Legend :    VFR   Marginal VFR   IFR   Intensive IFR   Very Intensive IFR
Visi :
Ceiling :
>= 8 km
>= 3000ft
5 to 8 km
1000 to 3000 ft
1500m to 5 km
500 to 1000 ft
800 to 1500m
200 to 500 ft
< 800m
< 200 ft
Symbols :   Thunderstorms  Fog  Heavy snow  Heavy precipitations  Wind > 20 kt






- Airport Elevation : 1074 ft


KHIE - Mount Washington Regional

CURRENT METAR :
  • 060452Z AUTO 24003KT 10SM SCT047 04/03 A2996 RMK AO2 RAE07 SLP150 P0000 T00440028 401390006

EXPIRED METARs :
  • 060405Z AUTO 30004KT 10SM -RA FEW017 BKN043 OVC050 06/04 A2996 RMK AO2 P0000 T00560039
  • 060352Z AUTO 29006KT 8SM -RA FEW014 BKN027 OVC042 06/04 A2996 RMK AO2 RAB30 SLP149 P0003 T00610039
  • 060252Z AUTO 30003KT 10SM FEW023 BKN030 BKN034 07/04 A2995 RMK AO2 SLP147 60003 T00670044 51004
  • 060241Z AUTO 31004KT 10SM FEW020 BKN028 OVC070 07/04 A2995 RMK AO2 T00720044
  • 060152Z AUTO 23004KT 10SM FEW030 OVC065 07/05 A2994 RMK AO2 RAE11 SLP145 P0000 T00720050

TAF KHIE
Valid from the 06 at 00:00 until the 07 at 00:00 UTC


052335Z 0600/0624 VRB03KT P6SM -SHRA OVC025
FM060700 28005KT P6SM BKN040
FM061500 29010G20KT P6SM SCT050



MET'MAP, your aeronautical weather chart ! - Copyright ORBIFLY December 2007 - Disclaimer

ORBIFLY MET'MAP TEAM :

Programming & Development : Alexandra Zaïnal
Concept & original design : Baudouin d'Aumeries
Assistance for programming : Marc-Olivier Méhu
Technical & hardware support : Manuel Goepfert

Contact : metmap@orbifly.com




SOURCES & CREDITS :

   NOAA